sensor_id;sensor_type;location;lat;lon;timestamp;P1;durP1;ratioP1;P2;durP2;ratioP2
5923;SDS011;2987;50.884;14.818;2023-07-22T00:00:02;4.97;;;4.57;;
5923;SDS011;2987;50.884;14.818;2023-07-22T00:02:31;4.30;;;4.00;;
5923;SDS011;2987;50.884;14.818;2023-07-22T00:04:57;3.30;;;3.10;;
5923;SDS011;2987;50.884;14.818;2023-07-22T00:07:23;5.23;;;2.90;;
5923;SDS011;2987;50.884;14.818;2023-07-22T00:09:49;5.17;;;3.70;;
5923;SDS011;2987;50.884;14.818;2023-07-22T00:12:15;3.87;;;3.53;;
5923;SDS011;2987;50.884;14.818;2023-07-22T00:14:41;3.67;;;3.33;;
5923;SDS011;2987;50.884;14.818;2023-07-22T00:17:08;7.07;;;4.83;;
5923;SDS011;2987;50.884;14.818;2023-07-22T00:19:34;10.20;;;4.87;;
5923;SDS011;2987;50.884;14.818;2023-07-22T00:22:00;8.23;;;5.10;;
5923;SDS011;2987;50.884;14.818;2023-07-22T00:24:27;8.07;;;5.23;;
5923;SDS011;2987;50.884;14.818;2023-07-22T00:26:52;5.73;;;5.23;;
5923;SDS011;2987;50.884;14.818;2023-07-22T00:29:18;9.27;;;5.70;;
5923;SDS011;2987;50.884;14.818;2023-07-22T00:31:44;6.80;;;4.80;;
5923;SDS011;2987;50.884;14.818;2023-07-22T00:34:10;5.87;;;4.70;;
5923;SDS011;2987;50.884;14.818;2023-07-22T00:36:36;7.77;;;4.30;;
5923;SDS011;2987;50.884;14.818;2023-07-22T00:39:03;7.80;;;4.57;;
5923;SDS011;2987;50.884;14.818;2023-07-22T00:41:30;4.47;;;3.87;;
5923;SDS011;2987;50.884;14.818;2023-07-22T00:43:57;7.93;;;3.97;;
5923;SDS011;2987;50.884;14.818;2023-07-22T00:46:23;6.20;;;3.80;;
5923;SDS011;2987;50.884;14.818;2023-07-22T00:48:49;7.90;;;3.87;;
5923;SDS011;2987;50.884;14.818;2023-07-22T00:51:16;4.57;;;3.53;;
5923;SDS011;2987;50.884;14.818;2023-07-22T00:53:43;6.80;;;3.73;;
5923;SDS011;2987;50.884;14.818;2023-07-22T00:56:09;6.43;;;3.90;;
5923;SDS011;2987;50.884;14.818;2023-07-22T00:58:35;4.13;;;3.77;;
5923;SDS011;2987;50.884;14.818;2023-07-22T01:03:27;4.70;;;4.07;;
5923;SDS011;2987;50.884;14.818;2023-07-22T01:05:53;10.53;;;4.87;;
5923;SDS011;2987;50.884;14.818;2023-07-22T01:08:20;6.43;;;4.47;;
5923;SDS011;2987;50.884;14.818;2023-07-22T01:10:46;9.00;;;4.37;;
5923;SDS011;2987;50.884;14.818;2023-07-22T01:13:13;10.13;;;4.53;;
5923;SDS011;2987;50.884;14.818;2023-07-22T01:15:39;10.63;;;4.10;;
5923;SDS011;2987;50.884;14.818;2023-07-22T01:18:06;6.37;;;4.30;;
5923;SDS011;2987;50.884;14.818;2023-07-22T01:20:33;8.50;;;3.93;;
5923;SDS011;2987;50.884;14.818;2023-07-22T01:23:01;3.70;;;3.40;;
5923;SDS011;2987;50.884;14.818;2023-07-22T01:25:27;6.43;;;4.20;;
5923;SDS011;2987;50.884;14.818;2023-07-22T01:27:53;9.60;;;4.63;;
5923;SDS011;2987;50.884;14.818;2023-07-22T01:30:19;6.23;;;3.80;;
5923;SDS011;2987;50.884;14.818;2023-07-22T01:32:46;5.67;;;3.93;;
5923;SDS011;2987;50.884;14.818;2023-07-22T01:35:12;5.60;;;3.93;;
5923;SDS011;2987;50.884;14.818;2023-07-22T01:37:39;6.50;;;3.83;;
5923;SDS011;2987;50.884;14.818;2023-07-22T01:40:06;7.73;;;3.90;;
5923;SDS011;2987;50.884;14.818;2023-07-22T01:42:40;4.37;;;3.97;;
5923;SDS011;2987;50.884;14.818;2023-07-22T01:45:07;11.67;;;3.73;;
5923;SDS011;2987;50.884;14.818;2023-07-22T01:47:34;5.57;;;3.67;;
5923;SDS011;2987;50.884;14.818;2023-07-22T01:50:01;3.47;;;3.27;;
5923;SDS011;2987;50.884;14.818;2023-07-22T01:52:28;4.10;;;3.37;;
5923;SDS011;2987;50.884;14.818;2023-07-22T01:54:54;4.00;;;3.60;;
5923;SDS011;2987;50.884;14.818;2023-07-22T01:57:21;4.03;;;3.63;;
5923;SDS011;2987;50.884;14.818;2023-07-22T01:59:46;3.00;;;2.80;;
5923;SDS011;2987;50.884;14.818;2023-07-22T02:02:13;5.90;;;3.20;;
5923;SDS011;2987;50.884;14.818;2023-07-22T02:04:39;3.50;;;3.20;;
5923;SDS011;2987;50.884;14.818;2023-07-22T02:07:05;5.93;;;3.80;;
5923;SDS011;2987;50.884;14.818;2023-07-22T02:09:32;3.83;;;3.53;;
5923;SDS011;2987;50.884;14.818;2023-07-22T02:11:58;5.77;;;3.63;;
5923;SDS011;2987;50.884;14.818;2023-07-22T02:14:24;5.17;;;3.83;;
5923;SDS011;2987;50.884;14.818;2023-07-22T02:16:50;5.13;;;3.83;;
5923;SDS011;2987;50.884;14.818;2023-07-22T02:19:16;3.90;;;3.50;;
5923;SDS011;2987;50.884;14.818;2023-07-22T02:21:42;7.17;;;3.43;;
5923;SDS011;2987;50.884;14.818;2023-07-22T02:24:09;3.43;;;3.10;;
5923;SDS011;2987;50.884;14.818;2023-07-22T02:26:35;6.23;;;2.97;;
5923;SDS011;2987;50.884;14.818;2023-07-22T02:31:28;5.70;;;3.40;;
5923;SDS011;2987;50.884;14.818;2023-07-22T02:33:54;8.03;;;4.07;;
5923;SDS011;2987;50.884;14.818;2023-07-22T02:36:20;3.90;;;3.60;;
5923;SDS011;2987;50.884;14.818;2023-07-22T02:38:46;5.90;;;3.70;;
5923;SDS011;2987;50.884;14.818;2023-07-22T02:41:12;5.20;;;4.03;;
5923;SDS011;2987;50.884;14.818;2023-07-22T02:43:38;5.50;;;3.93;;
5923;SDS011;2987;50.884;14.818;2023-07-22T02:46:06;18.03;;;4.23;;
5923;SDS011;2987;50.884;14.818;2023-07-22T02:48:33;11.73;;;4.23;;
5923;SDS011;2987;50.884;14.818;2023-07-22T02:51:04;14.27;;;4.40;;
5923;SDS011;2987;50.884;14.818;2023-07-22T02:53:31;6.50;;;4.33;;
5923;SDS011;2987;50.884;14.818;2023-07-22T02:55:58;15.87;;;4.00;;
5923;SDS011;2987;50.884;14.818;2023-07-22T02:58:25;8.80;;;3.97;;
5923;SDS011;2987;50.884;14.818;2023-07-22T03:01:10;9.70;;;3.97;;
5923;SDS011;2987;50.884;14.818;2023-07-22T03:03:36;13.53;;;4.20;;
5923;SDS011;2987;50.884;14.818;2023-07-22T03:06:05;13.50;;;3.97;;
5923;SDS011;2987;50.884;14.818;2023-07-22T03:08:32;17.90;;;4.20;;
5923;SDS011;2987;50.884;14.818;2023-07-22T03:10:58;11.23;;;4.30;;
5923;SDS011;2987;50.884;14.818;2023-07-22T03:13:24;16.07;;;4.87;;
5923;SDS011;2987;50.884;14.818;2023-07-22T03:15:50;23.07;;;5.33;;
5923;SDS011;2987;50.884;14.818;2023-07-22T03:18:16;19.90;;;4.90;;
5923;SDS011;2987;50.884;14.818;2023-07-22T03:20:42;8.33;;;4.30;;
5923;SDS011;2987;50.884;14.818;2023-07-22T03:23:07;17.03;;;4.70;;
5923;SDS011;2987;50.884;14.818;2023-07-22T03:25:34;19.97;;;4.70;;
5923;SDS011;2987;50.884;14.818;2023-07-22T03:28:02;16.83;;;4.87;;
5923;SDS011;2987;50.884;14.818;2023-07-22T03:30:29;21.57;;;6.07;;
5923;SDS011;2987;50.884;14.818;2023-07-22T03:32:56;20.90;;;5.40;;
5923;SDS011;2987;50.884;14.818;2023-07-22T03:35:22;33.60;;;6.17;;
5923;SDS011;2987;50.884;14.818;2023-07-22T03:37:48;21.97;;;5.60;;
5923;SDS011;2987;50.884;14.818;2023-07-22T03:40:15;14.30;;;5.90;;
5923;SDS011;2987;50.884;14.818;2023-07-22T03:42:46;23.27;;;5.90;;
5923;SDS011;2987;50.884;14.818;2023-07-22T03:45:13;20.70;;;6.00;;
5923;SDS011;2987;50.884;14.818;2023-07-22T03:47:39;21.23;;;5.93;;
5923;SDS011;2987;50.884;14.818;2023-07-22T03:50:05;11.03;;;5.50;;
5923;SDS011;2987;50.884;14.818;2023-07-22T03:52:32;15.83;;;6.73;;
5923;SDS011;2987;50.884;14.818;2023-07-22T03:54:58;13.47;;;7.23;;
5923;SDS011;2987;50.884;14.818;2023-07-22T03:57:27;7.40;;;6.80;;
5923;SDS011;2987;50.884;14.818;2023-07-22T03:59:54;12.63;;;7.33;;
5923;SDS011;2987;50.884;14.818;2023-07-22T04:02:20;11.97;;;7.93;;
5923;SDS011;2987;50.884;14.818;2023-07-22T04:04:46;11.40;;;9.07;;
5923;SDS011;2987;50.884;14.818;2023-07-22T04:07:12;8.97;;;8.03;;
5923;SDS011;2987;50.884;14.818;2023-07-22T04:09:38;10.50;;;9.40;;
5923;SDS011;2987;50.884;14.818;2023-07-22T04:12:04;15.23;;;10.17;;
5923;SDS011;2987;50.884;14.818;2023-07-22T04:14:30;10.03;;;9.03;;
5923;SDS011;2987;50.884;14.818;2023-07-22T04:16:58;12.67;;;9.67;;
5923;SDS011;2987;50.884;14.818;2023-07-22T04:19:24;8.97;;;7.83;;
5923;SDS011;2987;50.884;14.818;2023-07-22T04:21:50;10.87;;;9.03;;
5923;SDS011;2987;50.884;14.818;2023-07-22T04:24:16;13.23;;;9.07;;
5923;SDS011;2987;50.884;14.818;2023-07-22T04:26:43;12.33;;;9.27;;
5923;SDS011;2987;50.884;14.818;2023-07-22T04:29:10;9.40;;;8.47;;
5923;SDS011;2987;50.884;14.818;2023-07-22T04:31:37;9.20;;;8.37;;
5923;SDS011;2987;50.884;14.818;2023-07-22T04:34:04;8.50;;;7.63;;
5923;SDS011;2987;50.884;14.818;2023-07-22T04:36:32;9.93;;;7.83;;
5923;SDS011;2987;50.884;14.818;2023-07-22T04:38:58;8.77;;;7.90;;
5923;SDS011;2987;50.884;14.818;2023-07-22T04:41:24;8.37;;;7.57;;
5923;SDS011;2987;50.884;14.818;2023-07-22T04:43:50;7.60;;;6.70;;
5923;SDS011;2987;50.884;14.818;2023-07-22T04:46:16;8.00;;;6.63;;
5923;SDS011;2987;50.884;14.818;2023-07-22T04:48:43;8.53;;;6.83;;
5923;SDS011;2987;50.884;14.818;2023-07-22T04:51:09;8.80;;;7.10;;
5923;SDS011;2987;50.884;14.818;2023-07-22T04:53:34;9.90;;;6.90;;
5923;SDS011;2987;50.884;14.818;2023-07-22T04:56:00;7.70;;;6.83;;
5923;SDS011;2987;50.884;14.818;2023-07-22T04:58:28;8.27;;;7.27;;
5923;SDS011;2987;50.884;14.818;2023-07-22T05:00:54;7.47;;;6.73;;
5923;SDS011;2987;50.884;14.818;2023-07-22T05:03:20;10.67;;;7.83;;
5923;SDS011;2987;50.884;14.818;2023-07-22T05:05:45;9.33;;;6.73;;
5923;SDS011;2987;50.884;14.818;2023-07-22T05:08:11;9.17;;;7.50;;
5923;SDS011;2987;50.884;14.818;2023-07-22T05:10:37;8.17;;;7.40;;
5923;SDS011;2987;50.884;14.818;2023-07-22T05:13:04;7.60;;;6.83;;
5923;SDS011;2987;50.884;14.818;2023-07-22T05:15:30;7.57;;;6.87;;
5923;SDS011;2987;50.884;14.818;2023-07-22T05:17:56;6.80;;;6.20;;
5923;SDS011;2987;50.884;14.818;2023-07-22T05:20:21;6.70;;;5.90;;
5923;SDS011;2987;50.884;14.818;2023-07-22T05:22:48;8.33;;;6.67;;
5923;SDS011;2987;50.884;14.818;2023-07-22T05:25:14;7.87;;;5.80;;
5923;SDS011;2987;50.884;14.818;2023-07-22T05:27:40;8.57;;;6.00;;
5923;SDS011;2987;50.884;14.818;2023-07-22T05:30:06;6.87;;;6.27;;
5923;SDS011;2987;50.884;14.818;2023-07-22T05:32:34;8.03;;;5.90;;
5923;SDS011;2987;50.884;14.818;2023-07-22T05:35:01;9.30;;;6.23;;
5923;SDS011;2987;50.884;14.818;2023-07-22T05:37:29;10.87;;;6.47;;
5923;SDS011;2987;50.884;14.818;2023-07-22T05:39:56;8.33;;;5.77;;
5923;SDS011;2987;50.884;14.818;2023-07-22T05:42:22;9.47;;;5.70;;
5923;SDS011;2987;50.884;14.818;2023-07-22T05:44:48;5.60;;;5.10;;
5923;SDS011;2987;50.884;14.818;2023-07-22T05:47:14;7.67;;;5.50;;
5923;SDS011;2987;50.884;14.818;2023-07-22T05:49:40;8.53;;;5.57;;
5923;SDS011;2987;50.884;14.818;2023-07-22T05:52:06;8.33;;;5.20;;
5923;SDS011;2987;50.884;14.818;2023-07-22T05:54:33;7.47;;;5.47;;
5923;SDS011;2987;50.884;14.818;2023-07-22T05:56:59;6.10;;;5.30;;
5923;SDS011;2987;50.884;14.818;2023-07-22T05:59:25;6.13;;;5.60;;
5923;SDS011;2987;50.884;14.818;2023-07-22T06:01:50;7.93;;;6.17;;
5923;SDS011;2987;50.884;14.818;2023-07-22T06:04:16;8.03;;;6.27;;
5923;SDS011;2987;50.884;14.818;2023-07-22T06:06:42;9.17;;;6.20;;
5923;SDS011;2987;50.884;14.818;2023-07-22T06:09:09;6.67;;;6.03;;
5923;SDS011;2987;50.884;14.818;2023-07-22T06:11:35;5.93;;;5.43;;
5923;SDS011;2987;50.884;14.818;2023-07-22T06:14:01;8.43;;;5.83;;
5923;SDS011;2987;50.884;14.818;2023-07-22T06:16:27;7.00;;;6.30;;
5923;SDS011;2987;50.884;14.818;2023-07-22T06:18:53;7.90;;;7.13;;
5923;SDS011;2987;50.884;14.818;2023-07-22T06:21:19;9.03;;;6.83;;
5923;SDS011;2987;50.884;14.818;2023-07-22T06:23:45;8.37;;;6.97;;
5923;SDS011;2987;50.884;14.818;2023-07-22T06:26:11;7.80;;;7.00;;
5923;SDS011;2987;50.884;14.818;2023-07-22T06:28:37;8.47;;;7.47;;
5923;SDS011;2987;50.884;14.818;2023-07-22T06:31:03;7.17;;;6.33;;
5923;SDS011;2987;50.884;14.818;2023-07-22T06:33:29;6.97;;;6.27;;
5923;SDS011;2987;50.884;14.818;2023-07-22T06:35:55;6.80;;;6.10;;
5923;SDS011;2987;50.884;14.818;2023-07-22T06:38:21;9.67;;;7.53;;
5923;SDS011;2987;50.884;14.818;2023-07-22T06:40:47;6.90;;;6.17;;
5923;SDS011;2987;50.884;14.818;2023-07-22T06:43:12;12.53;;;6.07;;
5923;SDS011;2987;50.884;14.818;2023-07-22T06:45:38;7.47;;;6.03;;
5923;SDS011;2987;50.884;14.818;2023-07-22T06:48:04;6.93;;;6.17;;
5923;SDS011;2987;50.884;14.818;2023-07-22T06:50:30;9.87;;;5.90;;
5923;SDS011;2987;50.884;14.818;2023-07-22T06:55:22;6.33;;;5.33;;
5923;SDS011;2987;50.884;14.818;2023-07-22T06:57:48;8.27;;;5.67;;
5923;SDS011;2987;50.884;14.818;2023-07-22T07:00:14;5.53;;;4.90;;
5923;SDS011;2987;50.884;14.818;2023-07-22T07:02:40;6.20;;;4.70;;
5923;SDS011;2987;50.884;14.818;2023-07-22T07:05:06;5.20;;;4.70;;
5923;SDS011;2987;50.884;14.818;2023-07-22T07:07:32;8.00;;;4.10;;
5923;SDS011;2987;50.884;14.818;2023-07-22T07:09:58;6.53;;;4.53;;
5923;SDS011;2987;50.884;14.818;2023-07-22T07:12:25;6.63;;;4.20;;
5923;SDS011;2987;50.884;14.818;2023-07-22T07:14:51;9.63;;;4.93;;
5923;SDS011;2987;50.884;14.818;2023-07-22T07:17:17;4.43;;;4.03;;
5923;SDS011;2987;50.884;14.818;2023-07-22T07:19:43;6.50;;;4.13;;
5923;SDS011;2987;50.884;14.818;2023-07-22T07:22:09;8.37;;;4.30;;
5923;SDS011;2987;50.884;14.818;2023-07-22T07:24:35;8.30;;;4.37;;
5923;SDS011;2987;50.884;14.818;2023-07-22T07:27:01;4.53;;;4.13;;
5923;SDS011;2987;50.884;14.818;2023-07-22T07:29:27;6.37;;;4.50;;
5923;SDS011;2987;50.884;14.818;2023-07-22T07:31:53;5.33;;;3.83;;
5923;SDS011;2987;50.884;14.818;2023-07-22T07:34:19;4.77;;;4.00;;
5923;SDS011;2987;50.884;14.818;2023-07-22T07:36:45;5.47;;;3.87;;
5923;SDS011;2987;50.884;14.818;2023-07-22T07:39:11;4.40;;;4.00;;
5923;SDS011;2987;50.884;14.818;2023-07-22T07:41:37;5.33;;;3.63;;
5923;SDS011;2987;50.884;14.818;2023-07-22T07:44:03;4.33;;;3.90;;
5923;SDS011;2987;50.884;14.818;2023-07-22T07:46:30;4.23;;;3.30;;
5923;SDS011;2987;50.884;14.818;2023-07-22T07:48:57;6.03;;;3.70;;
5923;SDS011;2987;50.884;14.818;2023-07-22T07:51:24;5.03;;;3.60;;
5923;SDS011;2987;50.884;14.818;2023-07-22T07:53:53;5.60;;;3.47;;
5923;SDS011;2987;50.884;14.818;2023-07-22T07:56:20;3.90;;;3.13;;
5923;SDS011;2987;50.884;14.818;2023-07-22T07:58:47;4.60;;;2.90;;
5923;SDS011;2987;50.884;14.818;2023-07-22T08:01:14;5.90;;;3.97;;
5923;SDS011;2987;50.884;14.818;2023-07-22T08:03:41;4.03;;;3.60;;
5923;SDS011;2987;50.884;14.818;2023-07-22T08:06:08;5.03;;;3.27;;
5923;SDS011;2987;50.884;14.818;2023-07-22T08:08:35;3.40;;;3.03;;
5923;SDS011;2987;50.884;14.818;2023-07-22T08:11:03;3.77;;;3.43;;
5923;SDS011;2987;50.884;14.818;2023-07-22T08:13:31;5.10;;;3.33;;
5923;SDS011;2987;50.884;14.818;2023-07-22T08:15:59;8.33;;;4.73;;
5923;SDS011;2987;50.884;14.818;2023-07-22T08:18:28;5.60;;;5.00;;
5923;SDS011;2987;50.884;14.818;2023-07-22T08:20:56;4.73;;;4.23;;
5923;SDS011;2987;50.884;14.818;2023-07-22T08:23:22;5.43;;;3.67;;
5923;SDS011;2987;50.884;14.818;2023-07-22T08:25:51;4.73;;;3.57;;
5923;SDS011;2987;50.884;14.818;2023-07-22T08:28:17;3.90;;;3.20;;
5923;SDS011;2987;50.884;14.818;2023-07-22T08:30:43;7.37;;;4.20;;
5923;SDS011;2987;50.884;14.818;2023-07-22T08:33:11;4.67;;;4.20;;
5923;SDS011;2987;50.884;14.818;2023-07-22T08:35:38;4.20;;;3.80;;
5923;SDS011;2987;50.884;14.818;2023-07-22T08:38:05;7.07;;;5.07;;
5923;SDS011;2987;50.884;14.818;2023-07-22T08:40:34;4.23;;;3.50;;
5923;SDS011;2987;50.884;14.818;2023-07-22T08:43:01;6.00;;;4.30;;
5923;SDS011;2987;50.884;14.818;2023-07-22T08:45:29;4.17;;;3.27;;
5923;SDS011;2987;50.884;14.818;2023-07-22T08:48:09;3.70;;;3.33;;
5923;SDS011;2987;50.884;14.818;2023-07-22T08:50:52;3.23;;;2.93;;
5923;SDS011;2987;50.884;14.818;2023-07-22T08:53:21;5.37;;;3.00;;
5923;SDS011;2987;50.884;14.818;2023-07-22T08:55:50;3.70;;;3.40;;
5923;SDS011;2987;50.884;14.818;2023-07-22T08:58:17;4.20;;;3.03;;
5923;SDS011;2987;50.884;14.818;2023-07-22T09:00:43;3.57;;;3.20;;
5923;SDS011;2987;50.884;14.818;2023-07-22T09:03:10;4.33;;;3.40;;
5923;SDS011;2987;50.884;14.818;2023-07-22T09:05:37;7.17;;;3.90;;
5923;SDS011;2987;50.884;14.818;2023-07-22T09:10:32;6.07;;;4.60;;
5923;SDS011;2987;50.884;14.818;2023-07-22T09:12:59;5.30;;;4.60;;
5923;SDS011;2987;50.884;14.818;2023-07-22T09:15:26;6.90;;;5.10;;
5923;SDS011;2987;50.884;14.818;2023-07-22T09:17:53;3.60;;;3.10;;
5923;SDS011;2987;50.884;14.818;2023-07-22T09:20:20;8.80;;;7.07;;
5923;SDS011;2987;50.884;14.818;2023-07-22T09:22:47;3.80;;;3.40;;
5923;SDS011;2987;50.884;14.818;2023-07-22T09:25:18;5.10;;;3.47;;
5923;SDS011;2987;50.884;14.818;2023-07-22T09:27:47;8.53;;;5.90;;
5923;SDS011;2987;50.884;14.818;2023-07-22T09:30:31;9.73;;;8.73;;
5923;SDS011;2987;50.884;14.818;2023-07-22T09:33:01;5.73;;;4.67;;
5923;SDS011;2987;50.884;14.818;2023-07-22T09:35:29;7.23;;;4.50;;
5923;SDS011;2987;50.884;14.818;2023-07-22T09:38:12;4.27;;;3.87;;
5923;SDS011;2987;50.884;14.818;2023-07-22T09:40:40;4.77;;;4.30;;
5923;SDS011;2987;50.884;14.818;2023-07-22T09:45:35;5.30;;;4.13;;
5923;SDS011;2987;50.884;14.818;2023-07-22T09:48:03;3.93;;;3.53;;
5923;SDS011;2987;50.884;14.818;2023-07-22T09:50:29;4.50;;;3.20;;
5923;SDS011;2987;50.884;14.818;2023-07-22T09:52:56;7.73;;;3.50;;
5923;SDS011;2987;50.884;14.818;2023-07-22T09:55:25;4.03;;;3.20;;
5923;SDS011;2987;50.884;14.818;2023-07-22T09:57:56;5.40;;;3.30;;
5923;SDS011;2987;50.884;14.818;2023-07-22T10:00:25;4.07;;;3.30;;
5923;SDS011;2987;50.884;14.818;2023-07-22T10:02:55;4.43;;;3.07;;
5923;SDS011;2987;50.884;14.818;2023-07-22T10:05:24;7.13;;;3.10;;
5923;SDS011;2987;50.884;14.818;2023-07-22T10:07:53;4.03;;;3.03;;
5923;SDS011;2987;50.884;14.818;2023-07-22T10:10:23;6.33;;;3.30;;
5923;SDS011;2987;50.884;14.818;2023-07-22T10:12:52;3.93;;;2.93;;
5923;SDS011;2987;50.884;14.818;2023-07-22T10:15:19;5.57;;;2.90;;
5923;SDS011;2987;50.884;14.818;2023-07-22T10:17:45;4.67;;;3.20;;
5923;SDS011;2987;50.884;14.818;2023-07-22T10:20:12;6.30;;;3.40;;
5923;SDS011;2987;50.884;14.818;2023-07-22T10:22:46;3.13;;;2.83;;
5923;SDS011;2987;50.884;14.818;2023-07-22T10:25:14;6.00;;;3.43;;
5923;SDS011;2987;50.884;14.818;2023-07-22T10:27:41;3.77;;;3.37;;
5923;SDS011;2987;50.884;14.818;2023-07-22T10:30:09;3.13;;;2.60;;
5923;SDS011;2987;50.884;14.818;2023-07-22T10:32:37;3.23;;;2.93;;
5923;SDS011;2987;50.884;14.818;2023-07-22T10:35:07;4.27;;;3.10;;
5923;SDS011;2987;50.884;14.818;2023-07-22T10:37:36;3.43;;;2.50;;
5923;SDS011;2987;50.884;14.818;2023-07-22T10:40:24;4.23;;;3.03;;
5923;SDS011;2987;50.884;14.818;2023-07-22T10:42:56;4.60;;;2.77;;
5923;SDS011;2987;50.884;14.818;2023-07-22T10:45:27;3.83;;;2.87;;
5923;SDS011;2987;50.884;14.818;2023-07-22T10:48:12;4.40;;;2.80;;
5923;SDS011;2987;50.884;14.818;2023-07-22T10:50:39;5.03;;;2.80;;
5923;SDS011;2987;50.884;14.818;2023-07-22T10:53:20;5.57;;;3.10;;
5923;SDS011;2987;50.884;14.818;2023-07-22T11:09:05;3.20;;;2.90;;
5923;SDS011;2987;50.884;14.818;2023-07-22T11:14:20;2.80;;;2.57;;
5923;SDS011;2987;50.884;14.818;2023-07-22T11:16:47;5.80;;;2.33;;
5923;SDS011;2987;50.884;14.818;2023-07-22T11:19:14;3.00;;;2.80;;
5923;SDS011;2987;50.884;14.818;2023-07-22T11:21:43;3.87;;;2.20;;
5923;SDS011;2987;50.884;14.818;2023-07-22T11:24:10;2.70;;;2.50;;
5923;SDS011;2987;50.884;14.818;2023-07-22T11:26:36;2.90;;;2.27;;
5923;SDS011;2987;50.884;14.818;2023-07-22T11:29:03;3.17;;;2.50;;
5923;SDS011;2987;50.884;14.818;2023-07-22T11:31:32;2.53;;;1.97;;
5923;SDS011;2987;50.884;14.818;2023-07-22T11:33:59;3.73;;;1.90;;
5923;SDS011;2987;50.884;14.818;2023-07-22T11:36:26;5.27;;;2.53;;
5923;SDS011;2987;50.884;14.818;2023-07-22T11:38:52;2.70;;;2.50;;
5923;SDS011;2987;50.884;14.818;2023-07-22T11:41:20;4.00;;;2.57;;
5923;SDS011;2987;50.884;14.818;2023-07-22T11:43:46;2.33;;;2.13;;
5923;SDS011;2987;50.884;14.818;2023-07-22T11:46:13;1.90;;;1.80;;
5923;SDS011;2987;50.884;14.818;2023-07-22T11:48:39;2.73;;;2.10;;
5923;SDS011;2987;50.884;14.818;2023-07-22T11:51:06;2.20;;;2.00;;
5923;SDS011;2987;50.884;14.818;2023-07-22T11:53:33;2.23;;;2.03;;
5923;SDS011;2987;50.884;14.818;2023-07-22T11:55:59;2.07;;;1.97;;
5923;SDS011;2987;50.884;14.818;2023-07-22T11:58:25;2.23;;;2.13;;
5923;SDS011;2987;50.884;14.818;2023-07-22T12:01:10;2.93;;;1.97;;
5923;SDS011;2987;50.884;14.818;2023-07-22T12:03:36;4.23;;;2.13;;
5923;SDS011;2987;50.884;14.818;2023-07-22T12:06:03;4.17;;;2.20;;
5923;SDS011;2987;50.884;14.818;2023-07-22T12:08:29;3.50;;;2.40;;
5923;SDS011;2987;50.884;14.818;2023-07-22T12:10:56;2.73;;;1.90;;
5923;SDS011;2987;50.884;14.818;2023-07-22T12:13:23;2.40;;;2.20;;
5923;SDS011;2987;50.884;14.818;2023-07-22T12:16:05;2.63;;;1.80;;
5923;SDS011;2987;50.884;14.818;2023-07-22T12:18:47;3.80;;;2.13;;
5923;SDS011;2987;50.884;14.818;2023-07-22T12:21:13;3.77;;;2.17;;
5923;SDS011;2987;50.884;14.818;2023-07-22T12:23:40;2.70;;;2.27;;
5923;SDS011;2987;50.884;14.818;2023-07-22T12:26:07;4.17;;;2.10;;
5923;SDS011;2987;50.884;14.818;2023-07-22T12:28:33;3.33;;;2.17;;
5923;SDS011;2987;50.884;14.818;2023-07-22T12:31:00;2.97;;;2.13;;
5923;SDS011;2987;50.884;14.818;2023-07-22T12:33:26;3.60;;;2.30;;
5923;SDS011;2987;50.884;14.818;2023-07-22T12:35:53;2.73;;;2.50;;
5923;SDS011;2987;50.884;14.818;2023-07-22T12:38:20;2.60;;;2.17;;
5923;SDS011;2987;50.884;14.818;2023-07-22T12:40:45;2.63;;;2.00;;
5923;SDS011;2987;50.884;14.818;2023-07-22T12:43:11;4.80;;;2.03;;
5923;SDS011;2987;50.884;14.818;2023-07-22T12:45:37;5.67;;;2.50;;
5923;SDS011;2987;50.884;14.818;2023-07-22T12:48:03;4.47;;;1.97;;
5923;SDS011;2987;50.884;14.818;2023-07-22T12:50:31;2.03;;;1.90;;
5923;SDS011;2987;50.884;14.818;2023-07-22T12:52:58;3.23;;;2.10;;
5923;SDS011;2987;50.884;14.818;2023-07-22T12:55:24;2.43;;;2.23;;
5923;SDS011;2987;50.884;14.818;2023-07-22T12:57:51;2.27;;;1.83;;
5923;SDS011;2987;50.884;14.818;2023-07-22T13:00:17;2.00;;;1.80;;
5923;SDS011;2987;50.884;14.818;2023-07-22T13:02:43;3.50;;;2.03;;
5923;SDS011;2987;50.884;14.818;2023-07-22T13:05:09;5.07;;;2.50;;
5923;SDS011;2987;50.884;14.818;2023-07-22T13:07:36;2.53;;;2.03;;
5923;SDS011;2987;50.884;14.818;2023-07-22T13:10:02;2.37;;;1.93;;
5923;SDS011;2987;50.884;14.818;2023-07-22T13:12:32;2.93;;;1.80;;
5923;SDS011;2987;50.884;14.818;2023-07-22T13:14:58;2.90;;;2.20;;
5923;SDS011;2987;50.884;14.818;2023-07-22T13:17:24;1.90;;;1.80;;
5923;SDS011;2987;50.884;14.818;2023-07-22T13:19:50;4.87;;;2.30;;
5923;SDS011;2987;50.884;14.818;2023-07-22T13:22:16;2.20;;;2.00;;
5923;SDS011;2987;50.884;14.818;2023-07-22T13:24:42;2.33;;;2.07;;
5923;SDS011;2987;50.884;14.818;2023-07-22T13:27:08;3.07;;;2.00;;
5923;SDS011;2987;50.884;14.818;2023-07-22T13:29:34;3.07;;;2.00;;
5923;SDS011;2987;50.884;14.818;2023-07-22T13:32:00;4.30;;;2.30;;
5923;SDS011;2987;50.884;14.818;2023-07-22T13:34:26;2.03;;;1.93;;
5923;SDS011;2987;50.884;14.818;2023-07-22T13:36:52;2.27;;;2.07;;
5923;SDS011;2987;50.884;14.818;2023-07-22T13:39:20;3.33;;;2.00;;
5923;SDS011;2987;50.884;14.818;2023-07-22T13:41:46;3.67;;;1.90;;
5923;SDS011;2987;50.884;14.818;2023-07-22T13:44:14;1.93;;;1.83;;
5923;SDS011;2987;50.884;14.818;2023-07-22T13:46:41;2.00;;;1.83;;
5923;SDS011;2987;50.884;14.818;2023-07-22T13:49:07;2.30;;;2.10;;
5923;SDS011;2987;50.884;14.818;2023-07-22T13:51:33;2.33;;;1.90;;
5923;SDS011;2987;50.884;14.818;2023-07-22T13:53:59;2.07;;;1.80;;
5923;SDS011;2987;50.884;14.818;2023-07-22T13:56:25;2.30;;;2.10;;
5923;SDS011;2987;50.884;14.818;2023-07-22T13:58:53;2.73;;;2.00;;
5923;SDS011;2987;50.884;14.818;2023-07-22T14:01:20;2.10;;;1.93;;
5923;SDS011;2987;50.884;14.818;2023-07-22T14:03:45;3.13;;;2.30;;
5923;SDS011;2987;50.884;14.818;2023-07-22T14:06:11;3.53;;;2.00;;
5923;SDS011;2987;50.884;14.818;2023-07-22T14:08:37;2.07;;;1.93;;
5923;SDS011;2987;50.884;14.818;2023-07-22T14:11:05;3.17;;;2.10;;
5923;SDS011;2987;50.884;14.818;2023-07-22T14:13:30;3.67;;;2.13;;
5923;SDS011;2987;50.884;14.818;2023-07-22T14:15:56;5.17;;;2.27;;
5923;SDS011;2987;50.884;14.818;2023-07-22T14:18:22;3.10;;;1.90;;
5923;SDS011;2987;50.884;14.818;2023-07-22T14:20:48;2.27;;;1.87;;
5923;SDS011;2987;50.884;14.818;2023-07-22T14:23:14;2.13;;;1.93;;
5923;SDS011;2987;50.884;14.818;2023-07-22T14:25:40;2.23;;;2.03;;
5923;SDS011;2987;50.884;14.818;2023-07-22T14:28:06;2.50;;;2.30;;
5923;SDS011;2987;50.884;14.818;2023-07-22T14:30:32;5.07;;;2.37;;
5923;SDS011;2987;50.884;14.818;2023-07-22T14:32:58;3.83;;;2.13;;
5923;SDS011;2987;50.884;14.818;2023-07-22T14:35:24;2.30;;;2.10;;
5923;SDS011;2987;50.884;14.818;2023-07-22T14:37:50;2.20;;;1.93;;
5923;SDS011;2987;50.884;14.818;2023-07-22T14:40:18;2.77;;;2.57;;
5923;SDS011;2987;50.884;14.818;2023-07-22T14:42:44;3.33;;;2.30;;
5923;SDS011;2987;50.884;14.818;2023-07-22T14:45:10;4.60;;;2.23;;
5923;SDS011;2987;50.884;14.818;2023-07-22T14:47:36;2.57;;;2.37;;
5923;SDS011;2987;50.884;14.818;2023-07-22T14:50:02;2.37;;;2.17;;
5923;SDS011;2987;50.884;14.818;2023-07-22T14:52:28;2.47;;;2.27;;
5923;SDS011;2987;50.884;14.818;2023-07-22T14:54:54;5.60;;;2.20;;
5923;SDS011;2987;50.884;14.818;2023-07-22T14:57:20;2.23;;;2.00;;
5923;SDS011;2987;50.884;14.818;2023-07-22T14:59:46;1.97;;;1.80;;
5923;SDS011;2987;50.884;14.818;2023-07-22T15:02:14;3.90;;;2.23;;
5923;SDS011;2987;50.884;14.818;2023-07-22T15:04:40;2.13;;;1.90;;
5923;SDS011;2987;50.884;14.818;2023-07-22T15:07:05;2.40;;;2.20;;
5923;SDS011;2987;50.884;14.818;2023-07-22T15:09:31;2.07;;;1.97;;
5923;SDS011;2987;50.884;14.818;2023-07-22T15:11:57;2.27;;;2.07;;
5923;SDS011;2987;50.884;14.818;2023-07-22T15:14:23;2.70;;;2.37;;
5923;SDS011;2987;50.884;14.818;2023-07-22T15:16:49;3.00;;;2.80;;
5923;SDS011;2987;50.884;14.818;2023-07-22T15:19:15;2.87;;;2.57;;
5923;SDS011;2987;50.884;14.818;2023-07-22T15:21:41;8.80;;;2.50;;
5923;SDS011;2987;50.884;14.818;2023-07-22T15:24:07;3.23;;;2.93;;
5923;SDS011;2987;50.884;14.818;2023-07-22T15:26:33;3.53;;;2.23;;